Portada
METAR-TAF:

METAR-TAF

Aeropuertos :

Aeropuerto Internacional Fua'amotu

Tongatapu, Tonga

latitud: 21-14S, longitud: 175-09W, altitud: 38 m

Observación

El informe se hizo hace 51 minutos, a las 16:00 UTC
Viento 7 kt del sureste
Temperatura 22°C
Humedad 78%
Presión 1013 hPa
Visibilidad 10 km o más
Escasas nubes a una altura de 1600 ft, Cumulus congestus.

METAR: NFTF 131600Z 14007KT 9999 FEW016TCU 22/18 Q1013

Hora: 06:51 (16:51 UTC)

Pronóstico

El informe se hizo hace 5 horas y 41 minutos, a las 11:10 UTC
Pronóstico válido del 13 a las 12 UTC al 14 a las 12 UTC
Viento 3 kt del sur-sureste
Visibilidad 10 km o más
Escasas nubes a una altura de 1400 ft

TAF: NFTF 131110Z 1312/1412 15003KT 9999 FEW014

Observaciones y pronósticos meteorológicos de más de 4000 aeropuertos (mensajes METAR y TAF).

Los puntos amarillos y rojos representan las estaciones disponibles.

Ponga el ratón en el punto deseado para ver el nombre de la estación.

Haga clic para ver las observaciones y los pronósticos meteorológicos.

Para cambiar el mapa : haga clic en los botones verdes con una cruz de color negro para hacer un zoom, en el botón verde con un guión para alejar o en las flechas verdes para mapas adyacentes.


METAR-TAF: